Terminal Aerodrome Forecast
Issued by NWS Wakefield, VA

Home | Current Version | Previous Version | Text Only | Print | Product List | Glossary On
Versions: 1 2 3 4 5 6 7 8 9 10 11 12 13 14 15 16 17 18 19 20 21 22 23 24 25 26 27 28
000
FTUS41 KAKQ 231700
TAFORF
TAF
KORF 231737Z 2318/2418 23010KT P6SM SCT035
     FM240000 22008KT P6SM BKN250
     FM241000 25006KT P6SM SCT015 BKN060
     FM241500 33007KT P6SM BKN025 OVC120=

USA.gov is the U.S. government's official web portal to all federal, state and local government web resources and services.